Igor I Sikorsky Memorial Airport
KBDR : now visible

Airfield :











YOU CAN JOIN US ON...

 
LOGIN :

Register | Disclaimer

   EN    FR    IT 

 









Legend :    VFR   Marginal VFR   IFR   Intensive IFR   Very Intensive IFR
Visi :
Ceiling :
>= 8 km
>= 3000ft
5 to 8 km
1000 to 3000 ft
1500m to 5 km
500 to 1000 ft
800 to 1500m
200 to 500 ft
< 800m
< 200 ft
Symbols :   Thunderstorms  Fog  Heavy snow  Heavy precipitations  Wind > 20 kt







- Airport Elevation : 9 ft
- IATA code : BDR


KBDR - Igor I Sikorsky Memorial

CURRENT METAR :
  • 260152Z 05011KT 10SM CLR 19/12 A3026 RMK AO2 SLP246 T01890117

EXPIRED METARs :
  • 260052Z 06013KT 10SM FEW060 20/12 A3026 RMK AO2 SLP245 T02000122
  • 252352Z 07016KT 10SM BKN036 OVC048 21/13 A3024 RMK AO2 SLP239 T02110133 10244 20211 53002

TAF KBDR
Valid from the 26 at 00:00 until the 27 at 00:00 UTC


252333Z 2600/2624 07013KT P6SM SCT045
FM260600 04011KT P6SM SCT015
FM261600 08010KT P6SM SCT030
No reported NOTAMs for that airfield.



MET'MAP, your aeronautical weather chart ! - Copyright ORBIFLY December 2007 - Disclaimer

ORBIFLY MET'MAP TEAM :

Programming & Development : Alexandra Zaïnal
Concept & Development : Baudouin d'Aumeries
Co-Development & Prog : Marc-Olivier Méhu
Technical & hardware support : Manuel Goepfert

Contact : metmap@orbifly.com




SOURCES & CREDITS :

   NOAA       Earth
Advisory